createdAt,value
2023-05-16T00:00:38.176Z,64.23
2023-05-16T00:03:06.773Z,64.16
2023-05-16T00:05:33.780Z,64.28
2023-05-16T00:08:03.984Z,64.36
2023-05-16T00:10:31.119Z,64.68
2023-05-16T00:12:58.249Z,64.72
2023-05-16T00:15:27.133Z,64.57
2023-05-16T00:18:00.875Z,64.47
2023-05-16T00:20:28.855Z,63.62
2023-05-16T00:22:56.337Z,62.33
2023-05-16T00:25:23.583Z,61.49
2023-05-16T00:27:53.358Z,61.10
2023-05-16T00:30:20.419Z,61.60
2023-05-16T00:32:52.553Z,60.95
2023-05-16T00:35:19.953Z,61.15
2023-05-16T00:37:47.099Z,61.40
2023-05-16T00:40:17.364Z,61.69
2023-05-16T00:42:44.543Z,61.33
2023-05-16T00:45:12.238Z,61.48
2023-05-16T00:47:44.353Z,62.25
2023-05-16T00:50:11.525Z,62.46
2023-05-16T00:52:39.438Z,62.78
2023-05-16T00:55:07.181Z,63.00
2023-05-16T00:57:34.890Z,63.32
2023-05-16T01:00:06.789Z,63.87
2023-05-16T01:02:35.779Z,64.20
2023-05-16T01:05:05.432Z,64.39
2023-05-16T01:07:32.843Z,64.72
2023-05-16T01:10:00.300Z,65.07
2023-05-16T01:12:57.394Z,65.58
2023-05-16T01:15:35.848Z,65.70
2023-05-16T01:18:02.965Z,65.47
2023-05-16T01:20:36.352Z,66.15
2023-05-16T01:23:16.209Z,66.67
2023-05-16T01:25:47.099Z,67.07
2023-05-16T01:28:16.560Z,66.72
2023-05-16T01:30:44.838Z,66.71
2023-05-16T01:33:12.651Z,66.58
2023-05-16T01:35:46.255Z,66.74
2023-05-16T01:38:26.705Z,66.60
2023-05-16T01:41:05.042Z,66.00
2023-05-16T01:43:43.693Z,65.14
2023-05-16T01:46:16.287Z,65.02
2023-05-16T01:49:44.584Z,64.55
2023-05-16T01:52:16.710Z,64.08
2023-05-16T01:54:45.736Z,63.70
2023-05-16T01:57:13.401Z,63.48
2023-05-16T01:59:43.124Z,63.41
2023-05-16T02:02:11.036Z,63.12
2023-05-16T02:04:38.922Z,62.81
2023-05-16T02:07:07.367Z,62.78
2023-05-16T02:09:36.365Z,62.49
2023-05-16T02:12:04.693Z,62.49
2023-05-16T02:14:31.939Z,62.52
2023-05-16T02:16:59.332Z,62.44
2023-05-16T02:19:26.619Z,62.17
2023-05-16T02:21:53.549Z,62.24
2023-05-16T02:24:20.699Z,62.63
2023-05-16T02:26:47.758Z,63.24
2023-05-16T02:29:16.414Z,63.19
2023-05-16T02:31:43.853Z,63.08
2023-05-16T02:34:11.198Z,63.04
2023-05-16T02:36:38.271Z,62.80
2023-05-16T02:39:07.737Z,62.72
2023-05-16T02:41:34.779Z,62.66
2023-05-16T02:44:08.024Z,62.39
2023-05-16T02:46:35.937Z,62.52
2023-05-16T02:49:04.504Z,62.26
2023-05-16T02:51:31.571Z,62.22
2023-05-16T02:54:00.100Z,61.57
2023-05-16T02:56:30.191Z,61.51
2023-05-16T02:58:57.177Z,61.37
2023-05-16T03:01:24.676Z,61.29
2023-05-16T03:03:59.312Z,61.26
2023-05-16T03:06:26.575Z,61.12
2023-05-16T03:08:56.590Z,60.64
2023-05-16T03:11:26.070Z,60.86
2023-05-16T03:13:53.202Z,59.67
2023-05-16T03:16:20.360Z,58.80
2023-05-16T03:18:48.753Z,57.94
2023-05-16T03:21:15.799Z,57.85
2023-05-16T03:23:45.527Z,56.72
2023-05-16T03:26:12.572Z,55.62
2023-05-16T03:28:39.712Z,54.69
2023-05-16T03:31:06.887Z,53.69
2023-05-16T03:33:36.900Z,53.27
2023-05-16T03:36:04.211Z,53.11
2023-05-16T03:38:31.383Z,52.58
2023-05-16T03:41:01.737Z,52.30
2023-05-16T03:43:29.041Z,51.98
2023-05-16T03:45:59.923Z,52.11
2023-05-16T03:48:27.091Z,52.27
2023-05-16T03:51:15.633Z,51.94
2023-05-16T03:54:01.275Z,51.56
2023-05-16T03:56:28.692Z,51.49
2023-05-16T03:58:59.409Z,50.96
2023-05-16T04:01:45.017Z,50.94
2023-05-16T04:04:11.987Z,50.07
2023-05-16T04:06:39.992Z,50.21
2023-05-16T04:09:09.824Z,50.07
2023-05-16T04:11:38.913Z,50.06
2023-05-16T04:14:05.984Z,50.08
2023-05-16T04:16:33.207Z,49.84
2023-05-16T04:19:00.328Z,49.94
2023-05-16T04:21:27.790Z,49.67
2023-05-16T04:23:54.826Z,49.72
2023-05-16T04:26:22.701Z,48.65
2023-05-16T04:29:09.150Z,48.68
2023-05-16T04:31:57.003Z,48.31
2023-05-16T04:34:29.657Z,47.99
2023-05-16T04:36:57.154Z,46.76
2023-05-16T04:39:26.919Z,46.76
2023-05-16T04:41:54.787Z,47.03
2023-05-16T04:44:22.013Z,46.42
2023-05-16T04:46:49.174Z,46.45
2023-05-16T04:49:16.830Z,45.87
2023-05-16T04:51:43.792Z,46.25
2023-05-16T04:54:10.957Z,46.44
2023-05-16T04:56:37.950Z,46.40
2023-05-16T04:59:05.244Z,46.46
2023-05-16T05:01:32.585Z,46.12
2023-05-16T05:04:18.560Z,46.19
2023-05-16T05:06:45.807Z,45.96
2023-05-16T05:09:12.772Z,46.21
2023-05-16T05:11:40.895Z,46.25
2023-05-16T05:14:09.531Z,45.22
2023-05-16T05:16:37.770Z,45.25
2023-05-16T05:19:05.898Z,45.11
2023-05-16T05:21:33.088Z,44.59
2023-05-16T05:24:00.246Z,43.98
2023-05-16T05:26:28.172Z,44.48
2023-05-16T05:29:04.432Z,44.24
2023-05-16T05:31:35.146Z,44.28
2023-05-16T05:34:03.604Z,44.73
2023-05-16T05:36:31.266Z,45.61
2023-05-16T05:38:58.766Z,44.03
2023-05-16T05:41:26.991Z,43.83
2023-05-16T05:43:56.524Z,43.62
2023-05-16T05:46:25.442Z,43.29
2023-05-16T05:48:52.664Z,43.52
2023-05-16T05:51:20.166Z,43.79
2023-05-16T05:53:47.403Z,43.38
2023-05-16T05:56:14.510Z,42.86
2023-05-16T05:58:47.383Z,42.96
2023-05-16T06:01:17.429Z,42.68
2023-05-16T06:03:44.581Z,42.84
2023-05-16T06:06:11.561Z,41.88
2023-05-16T06:08:47.788Z,41.18
2023-05-16T06:11:15.229Z,41.48
2023-05-16T06:13:45.469Z,41.89
2023-05-16T06:16:13.931Z,41.67
2023-05-16T06:18:41.089Z,41.03
2023-05-16T06:21:08.270Z,40.54
2023-05-16T06:23:36.091Z,39.94
2023-05-16T06:26:11.731Z,40.07
2023-05-16T06:28:41.859Z,39.69
2023-05-16T06:31:10.625Z,40.06
2023-05-16T06:33:43.395Z,40.30
2023-05-16T06:36:15.642Z,39.97
2023-05-16T06:38:43.565Z,38.26
2023-05-16T06:41:10.567Z,37.96
2023-05-16T06:43:37.634Z,37.77
2023-05-16T06:46:05.068Z,37.73
2023-05-16T06:48:34.316Z,37.78
2023-05-16T06:51:04.802Z,36.90
2023-05-16T06:53:32.046Z,37.19
2023-05-16T06:55:59.362Z,37.69
2023-05-16T06:58:33.803Z,36.56
2023-05-16T07:01:03.532Z,36.58
2023-05-16T07:03:32.325Z,36.13
2023-05-16T07:05:59.471Z,35.53
2023-05-16T07:08:26.542Z,34.42
2023-05-16T07:10:53.608Z,34.28
2023-05-16T07:13:23.783Z,34.66
2023-05-16T07:15:51.725Z,34.90
2023-05-16T07:18:21.072Z,33.46
2023-05-16T07:20:48.645Z,34.30
2023-05-16T07:23:18.081Z,33.76
2023-05-16T07:25:45.328Z,32.83
2023-05-16T07:28:12.532Z,31.56
2023-05-16T07:30:40.274Z,32.17
2023-05-16T07:33:07.422Z,31.58
2023-05-16T07:35:34.683Z,30.52
2023-05-16T07:38:08.571Z,30.02
2023-05-16T07:40:39.039Z,30.98
2023-05-16T07:43:08.207Z,29.83
2023-05-16T07:45:40.845Z,30.27
2023-05-16T07:48:08.070Z,29.85
2023-05-16T07:50:35.156Z,30.06
2023-05-16T07:53:02.429Z,29.58
2023-05-16T07:55:32.486Z,30.19
2023-05-16T07:57:59.574Z,29.25
2023-05-16T08:00:26.851Z,29.89
2023-05-16T08:02:54.393Z,29.13
2023-05-16T08:05:21.705Z,29.22
2023-05-16T08:07:53.697Z,29.46
2023-05-16T08:10:21.057Z,29.39
2023-05-16T08:12:48.508Z,27.65
2023-05-16T08:15:18.848Z,27.01
2023-05-16T08:17:46.409Z,27.34
2023-05-16T08:20:13.791Z,28.16
2023-05-16T08:22:41.252Z,27.96
2023-05-16T08:25:12.056Z,28.00
2023-05-16T08:27:39.491Z,26.95
2023-05-16T08:30:11.560Z,27.76
2023-05-16T08:32:41.569Z,27.64
2023-05-16T08:35:09.029Z,27.72
2023-05-16T08:37:38.110Z,26.26
2023-05-16T08:40:08.480Z,26.79
2023-05-16T08:42:36.149Z,26.18
2023-05-16T08:45:03.939Z,26.36
2023-05-16T08:47:33.324Z,26.69
2023-05-16T08:50:04.476Z,26.38
2023-05-16T08:52:34.836Z,27.45
2023-05-16T08:55:11.073Z,28.08
2023-05-16T08:57:44.613Z,28.12
2023-05-16T09:00:12.982Z,26.61
2023-05-16T09:02:47.172Z,25.28
2023-05-16T09:05:16.469Z,26.18
2023-05-16T09:07:45.944Z,25.70
2023-05-16T09:10:13.956Z,26.06
2023-05-16T09:12:42.271Z,26.48
2023-05-16T09:15:13.083Z,24.98
2023-05-16T09:17:50.103Z,24.37
2023-05-16T09:20:23.299Z,23.91
2023-05-16T09:23:02.288Z,23.50
2023-05-16T09:25:33.020Z,22.72
2023-05-16T09:28:26.142Z,23.02
2023-05-16T09:31:00.226Z,22.87
2023-05-16T09:33:46.542Z,22.21
2023-05-16T09:36:19.787Z,22.10
2023-05-16T09:39:24.665Z,22.55
2023-05-16T09:42:18.737Z,22.07
2023-05-16T09:45:04.655Z,22.69
2023-05-16T09:47:32.943Z,22.47
2023-05-16T09:50:21.744Z,21.59
2023-05-16T09:52:48.839Z,21.45
2023-05-16T09:55:26.305Z,21.12
2023-05-16T09:58:12.805Z,21.00
2023-05-16T10:00:57.376Z,20.95
2023-05-16T10:03:41.000Z,21.29
2023-05-16T10:06:09.330Z,20.76
2023-05-16T10:08:37.286Z,21.35
2023-05-16T10:11:06.100Z,20.90
2023-05-16T10:13:39.687Z,21.34
2023-05-16T10:16:48.710Z,19.89
2023-05-16T10:19:40.418Z,21.10
2023-05-16T10:22:08.054Z,20.43
2023-05-16T10:25:17.058Z,20.41
2023-05-16T10:27:45.026Z,20.58
2023-05-16T10:30:37.507Z,19.05
2023-05-16T10:33:08.026Z,19.05
2023-05-16T10:35:42.578Z,19.05
2023-05-16T10:38:30.233Z,18.54
2023-05-16T10:41:03.758Z,19.07
2023-05-16T10:43:31.306Z,19.02
2023-05-16T10:46:10.868Z,19.35
2023-05-16T10:48:44.020Z,19.00
2023-05-16T10:51:23.579Z,18.96
2023-05-16T10:53:55.113Z,18.77
2023-05-16T10:56:27.204Z,18.53
2023-05-16T10:59:02.169Z,18.40
2023-05-16T11:01:36.119Z,18.52
2023-05-16T11:04:06.461Z,18.41
2023-05-16T11:06:42.981Z,17.99
2023-05-16T11:09:29.441Z,18.45
2023-05-16T11:12:00.403Z,19.17
2023-05-16T11:14:34.780Z,18.86
2023-05-16T11:17:07.198Z,19.38
2023-05-16T11:19:48.030Z,19.18
2023-05-16T11:22:26.991Z,19.22
2023-05-16T11:25:05.941Z,19.06
2023-05-16T11:27:57.853Z,18.92
2023-05-16T11:30:31.092Z,18.44
2023-05-16T11:32:58.281Z,17.69
2023-05-16T11:35:26.038Z,17.71
2023-05-16T11:37:53.483Z,17.70
2023-05-16T11:40:20.888Z,17.64
2023-05-16T11:42:48.551Z,18.26
2023-05-16T11:45:58.081Z,18.03
2023-05-16T11:48:35.632Z,17.41
2023-05-16T11:51:03.702Z,17.76
2023-05-16T11:53:30.893Z,17.63
2023-05-16T11:56:02.279Z,17.82
2023-05-16T11:58:32.123Z,18.07
2023-05-16T12:00:59.401Z,18.14
2023-05-16T12:03:26.554Z,18.15
2023-05-16T12:05:55.237Z,17.79
2023-05-16T12:08:22.741Z,17.17
2023-05-16T12:10:51.722Z,17.18
2023-05-16T12:13:22.741Z,17.41
2023-05-16T12:16:09.654Z,17.03
2023-05-16T12:18:41.850Z,16.95
2023-05-16T12:21:10.768Z,17.23
2023-05-16T12:23:37.862Z,16.88
2023-05-16T12:26:08.658Z,17.11
2023-05-16T12:28:37.934Z,16.48
2023-05-16T12:31:23.140Z,16.08
2023-05-16T12:33:58.620Z,16.80
2023-05-16T12:36:26.690Z,16.70
2023-05-16T12:38:54.106Z,16.72
2023-05-16T12:41:22.710Z,16.57
2023-05-16T12:43:50.160Z,15.96
2023-05-16T12:46:18.853Z,14.93
2023-05-16T12:48:51.292Z,15.38
2023-05-16T12:51:19.466Z,15.98
2023-05-16T12:54:01.254Z,16.25
2023-05-16T12:56:44.737Z,16.49
2023-05-16T12:59:12.819Z,16.76
2023-05-16T13:01:40.846Z,16.39
2023-05-16T13:04:16.049Z,15.86
2023-05-16T13:06:56.797Z,15.60
2023-05-16T13:09:29.988Z,15.28
2023-05-16T13:11:58.551Z,14.97
2023-05-16T13:14:25.959Z,15.41
2023-05-16T13:16:53.137Z,15.69
2023-05-16T13:19:34.384Z,16.07
2023-05-16T13:22:01.678Z,15.95
2023-05-16T13:24:31.397Z,15.48
2023-05-16T13:27:27.355Z,15.31
2023-05-16T13:29:57.122Z,15.07
2023-05-16T13:32:27.852Z,15.37
2023-05-16T13:34:56.051Z,15.45
2023-05-16T13:37:24.631Z,15.15
2023-05-16T13:39:52.857Z,15.02
2023-05-16T13:42:19.939Z,15.13
2023-05-16T13:44:47.655Z,15.23
2023-05-16T13:47:14.840Z,14.55
2023-05-16T13:49:44.168Z,14.56
2023-05-16T13:52:13.877Z,14.18
2023-05-16T13:54:41.710Z,14.32
2023-05-16T13:57:08.891Z,14.12
2023-05-16T14:02:06.216Z,14.47
2023-05-16T14:04:33.568Z,14.39
2023-05-16T14:07:01.671Z,14.59
2023-05-16T14:09:28.736Z,14.78
2023-05-16T14:11:56.193Z,15.76
2023-05-16T14:14:27.188Z,15.78
2023-05-16T14:16:54.365Z,15.24
2023-05-16T14:19:23.552Z,15.43
2023-05-16T14:21:53.632Z,14.54
2023-05-16T14:24:20.657Z,14.50
2023-05-16T14:26:48.022Z,14.29
2023-05-16T14:29:15.044Z,15.19
2023-05-16T14:31:42.550Z,15.02
2023-05-16T14:36:56.891Z,15.43
2023-05-16T14:39:24.046Z,15.11
2023-05-16T14:41:51.425Z,14.96
2023-05-16T14:44:20.473Z,15.34
2023-05-16T14:46:48.082Z,15.59
2023-05-16T14:49:18.045Z,16.02
2023-05-16T14:51:50.605Z,15.69
2023-05-16T14:54:20.300Z,15.40
2023-05-16T14:56:47.522Z,15.76
2023-05-16T14:59:14.712Z,16.37
2023-05-16T15:01:42.127Z,16.54
2023-05-16T15:04:09.349Z,15.90
2023-05-16T15:06:36.717Z,16.14
2023-05-16T15:09:03.881Z,15.68
2023-05-16T15:11:33.259Z,15.78
2023-05-16T15:14:01.892Z,16.79
2023-05-16T15:16:30.432Z,17.10
2023-05-16T15:19:04.067Z,17.49
2023-05-16T15:21:33.471Z,18.07
2023-05-16T15:24:01.021Z,18.42
2023-05-16T15:26:28.268Z,18.52
2023-05-16T15:28:55.845Z,18.95
2023-05-16T15:31:23.234Z,19.25
2023-05-16T15:33:52.830Z,19.71
2023-05-16T15:36:19.863Z,19.33
2023-05-16T15:38:47.673Z,18.81
2023-05-16T15:41:31.921Z,18.57
2023-05-16T15:44:03.347Z,19.05
2023-05-16T15:46:43.587Z,19.51
2023-05-16T15:49:12.996Z,20.94
2023-05-16T15:51:42.715Z,22.21
2023-05-16T15:54:10.359Z,23.72
2023-05-16T15:56:37.451Z,24.50
2023-05-16T15:59:08.416Z,25.78
2023-05-16T16:01:35.702Z,25.99
2023-05-16T16:04:07.934Z,27.05
2023-05-16T16:06:37.982Z,27.71
2023-05-16T16:09:05.102Z,28.47
2023-05-16T16:11:32.388Z,28.55
2023-05-16T16:13:59.608Z,29.16
2023-05-16T16:16:27.232Z,29.50
2023-05-16T16:18:58.037Z,29.71
2023-05-16T16:21:25.271Z,30.13
2023-05-16T16:23:52.325Z,30.70
2023-05-16T16:26:19.714Z,30.74
2023-05-16T16:28:47.469Z,30.74
2023-05-16T16:31:17.713Z,30.76
2023-05-16T16:33:58.466Z,30.97
2023-05-16T16:36:25.780Z,30.83
2023-05-16T16:38:53.078Z,31.39
2023-05-16T16:41:24.814Z,30.98
2023-05-16T16:43:54.357Z,31.29
2023-05-16T16:46:32.049Z,31.06
2023-05-16T16:49:04.722Z,31.20
2023-05-16T16:51:38.999Z,31.66
2023-05-16T16:54:07.568Z,31.09
2023-05-16T16:56:34.739Z,32.22
2023-05-16T16:59:02.329Z,32.28
2023-05-16T17:01:32.195Z,32.38
2023-05-16T17:04:00.282Z,33.38
2023-05-16T17:06:30.033Z,33.36
2023-05-16T17:09:07.472Z,34.05
2023-05-16T17:11:43.168Z,34.43
2023-05-16T17:14:16.222Z,34.58
2023-05-16T17:17:01.601Z,35.05
2023-05-16T17:19:29.096Z,35.31
2023-05-16T17:21:56.655Z,35.66
2023-05-16T17:24:23.765Z,36.02
2023-05-16T17:27:09.455Z,36.08
2023-05-16T17:29:38.749Z,36.29
2023-05-16T17:32:09.193Z,36.35
2023-05-16T17:34:36.602Z,36.57
2023-05-16T17:37:06.286Z,36.62
2023-05-16T17:39:34.243Z,36.76
2023-05-16T17:42:02.249Z,37.27
2023-05-16T17:44:36.840Z,37.22
2023-05-16T17:47:11.514Z,37.90
2023-05-16T17:49:44.929Z,37.86
2023-05-16T17:52:12.249Z,38.00
2023-05-16T17:54:39.610Z,38.11
2023-05-16T17:57:07.007Z,38.42
2023-05-16T17:59:39.836Z,38.75
2023-05-16T18:02:10.119Z,38.77
2023-05-16T18:04:37.205Z,38.57
2023-05-16T18:07:08.078Z,38.98
2023-05-16T18:09:35.760Z,39.07
2023-05-16T18:12:21.514Z,39.03
2023-05-16T18:14:48.985Z,39.15
2023-05-16T18:17:18.117Z,39.47
2023-05-16T18:19:54.127Z,39.44
2023-05-16T18:22:24.759Z,39.48
2023-05-16T18:24:52.183Z,40.01
2023-05-16T18:27:19.294Z,39.81
2023-05-16T18:29:46.500Z,40.18
2023-05-16T18:32:32.314Z,39.95
2023-05-16T18:34:59.605Z,40.07
2023-05-16T18:37:30.114Z,40.02
2023-05-16T18:39:57.287Z,40.00
2023-05-16T18:42:25.926Z,40.25
2023-05-16T18:45:03.065Z,40.40
2023-05-16T18:47:32.161Z,40.46
2023-05-16T18:50:17.860Z,40.54
2023-05-16T18:53:03.739Z,40.75
2023-05-16T18:55:31.381Z,40.95
2023-05-16T18:57:58.873Z,40.97
2023-05-16T19:00:26.087Z,40.82
2023-05-16T19:02:57.250Z,41.38
2023-05-16T19:05:25.943Z,41.28
2023-05-16T19:08:11.884Z,41.48
2023-05-16T19:10:41.701Z,41.57
2023-05-16T19:13:10.126Z,41.55
2023-05-16T19:15:55.981Z,42.12
2023-05-16T19:18:45.430Z,42.18
2023-05-16T19:21:14.426Z,42.33
2023-05-16T19:23:49.566Z,42.42
2023-05-16T19:26:17.116Z,42.58
2023-05-16T19:28:47.346Z,42.54
2023-05-16T19:31:15.155Z,42.40
2023-05-16T19:34:09.600Z,42.51
2023-05-16T19:36:37.435Z,42.80
2023-05-16T19:39:04.980Z,43.04
2023-05-16T19:41:32.203Z,43.31
2023-05-16T19:43:59.453Z,43.47
2023-05-16T19:46:45.130Z,43.60
2023-05-16T19:49:17.502Z,43.59
2023-05-16T19:51:46.593Z,43.52
2023-05-16T19:54:16.556Z,43.94
2023-05-16T19:56:48.637Z,44.21
2023-05-16T19:59:20.978Z,44.50
2023-05-16T20:01:49.074Z,44.61
2023-05-16T20:04:34.677Z,44.45
2023-05-16T20:07:04.058Z,44.69
2023-05-16T20:09:31.401Z,45.38
2023-05-16T20:11:59.072Z,45.02
2023-05-16T20:14:27.501Z,45.07
2023-05-16T20:16:55.000Z,44.71
2023-05-16T20:19:23.027Z,44.91
2023-05-16T20:21:50.286Z,45.09
2023-05-16T20:24:17.772Z,45.13
2023-05-16T20:27:03.493Z,45.25
2023-05-16T20:29:34.242Z,45.36
2023-05-16T20:32:03.322Z,45.46
2023-05-16T20:34:33.308Z,45.62
2023-05-16T20:37:20.210Z,45.63
2023-05-16T20:40:06.876Z,45.58
2023-05-16T20:42:35.057Z,45.84
2023-05-16T20:45:02.403Z,46.41
2023-05-16T20:47:38.588Z,46.57
2023-05-16T20:50:08.901Z,46.77
2023-05-16T20:52:36.248Z,47.00
2023-05-16T20:55:03.396Z,47.34
2023-05-16T20:57:34.313Z,47.80
2023-05-16T21:00:02.757Z,48.35
2023-05-16T21:02:37.421Z,48.40
2023-05-16T21:05:23.051Z,48.59
2023-05-16T21:07:53.486Z,48.51
2023-05-16T21:10:23.183Z,48.34
2023-05-16T21:12:50.442Z,48.62
2023-05-16T21:15:19.877Z,49.08
2023-05-16T21:17:48.829Z,49.00
2023-05-16T21:20:19.230Z,49.24
2023-05-16T21:22:46.391Z,48.77
2023-05-16T21:25:13.552Z,48.84
2023-05-16T21:27:40.843Z,49.00
2023-05-16T21:30:08.408Z,49.31
2023-05-16T21:32:35.675Z,49.40
2023-05-16T21:35:04.332Z,49.20
2023-05-16T21:37:32.292Z,49.40
2023-05-16T21:39:59.342Z,49.62
2023-05-16T21:42:27.593Z,49.86
2023-05-16T21:44:55.461Z,49.93
2023-05-16T21:47:23.297Z,50.31
2023-05-16T21:49:50.450Z,50.24
2023-05-16T21:52:17.558Z,49.91
2023-05-16T21:54:44.793Z,50.11
2023-05-16T21:57:12.073Z,50.03
2023-05-16T21:59:42.009Z,50.22
2023-05-16T22:02:11.999Z,50.30
2023-05-16T22:04:39.015Z,50.36
2023-05-16T22:07:06.432Z,50.53
2023-05-16T22:09:33.539Z,50.57
2023-05-16T22:12:00.676Z,51.17
2023-05-16T22:14:29.011Z,50.84
2023-05-16T22:16:56.176Z,50.64
2023-05-16T22:19:23.423Z,50.65
2023-05-16T22:21:51.009Z,50.83
2023-05-16T22:24:18.681Z,50.97
2023-05-16T22:26:49.474Z,51.30
2023-05-16T22:29:16.746Z,51.03
2023-05-16T22:31:44.222Z,51.26
2023-05-16T22:34:13.775Z,51.42
2023-05-16T22:36:42.233Z,51.56
2023-05-16T22:39:09.587Z,51.63
2023-05-16T22:41:36.871Z,51.74
2023-05-16T22:44:03.918Z,52.07
2023-05-16T22:46:31.066Z,51.87
2023-05-16T22:48:58.236Z,51.92
2023-05-16T22:51:27.975Z,52.08
2023-05-16T22:53:57.436Z,52.48
2023-05-16T22:56:24.720Z,52.90
2023-05-16T22:58:52.080Z,52.67
2023-05-16T23:01:20.833Z,52.84
2023-05-16T23:03:48.149Z,53.13
2023-05-16T23:06:15.820Z,53.21
2023-05-16T23:08:45.396Z,53.15
2023-05-16T23:11:15.031Z,53.06
2023-05-16T23:13:47.057Z,53.46
2023-05-16T23:16:14.058Z,53.58
2023-05-16T23:18:43.967Z,53.52
2023-05-16T23:21:11.044Z,53.72
2023-05-16T23:23:38.163Z,53.91
2023-05-16T23:26:05.349Z,53.93
2023-05-16T23:28:35.626Z,53.93
2023-05-16T23:31:02.654Z,54.00
2023-05-16T23:33:30.734Z,53.94
2023-05-16T23:35:57.923Z,53.86
2023-05-16T23:38:25.811Z,54.15
2023-05-16T23:40:53.054Z,54.24
2023-05-16T23:43:20.173Z,54.35
2023-05-16T23:45:47.532Z,54.37
2023-05-16T23:48:14.894Z,54.50
2023-05-16T23:50:42.042Z,54.84
2023-05-16T23:53:09.127Z,54.84
2023-05-16T23:55:36.190Z,55.22
2023-05-16T23:58:07.132Z,55.43
